PROFILE

 METAR AND TAF INFORMATION
ADDS - METARS form results

(2150 UTC 10 December 2018)
http://aviationweather.gov/metar/data/
 
LFKJ 102130Z AUTO 05007KT CAVOK 07/05 Q1019 NOSIG
LFKJ 102100Z AUTO 04004KT CAVOK 08/05 Q1019 NOSIG
TAF LFKJ 102000Z 1021/1121 05005KT CAVOK BECMG 1108/1110 22010KT BECMG 1118/1120 05006KT 

 AIRPORT MAP

 RUNWAY INFORMATION
Runway 02 Runway length 7897 ft Runway width 148 ft
Runway elevation 15 ft Runway displaced threshold 0 ft Runway heading 25
Runway 20 Runway length 7897 ft Runway width 148 ft
Runway elevation 18 ft Runway displaced threshold 744 ft Runway heading 205

 AIRPORT FREQUENCIES
Type AFIS Name AFIS Frequency 119.825 MHZ
Type APP Name AJACCIO AP Frequency 121.05 MHZ
Type ATIS Name AJACCIO AT Frequency 126.925 MHZ
Type GND Name AJACCIO GN Frequency 121.7 MHZ
Type TWR Name AJACCIO TW Frequency 118.075 MHZ

 AIRPORT NEAR NAVIGATION AIDS
Type NDB Name Ajaccio/Campo Dell Oro Frequency 341 KHZ